Time;durP1;ratioP1;P1;durP2;ratioP2;P2;SDS_P1;SDS_P2;PMS_P1;PMS_P2;Temp;Humidity;BMP_temperature;BMP_pressure;BME280_temperature;BME280_humidity;BME280_pressure;Samples;Min_cycle;Max_cycle;Signal;HPM_P1;HPM_P2
2024/01/12 00:00:22;;;;;;;3.88;1.50;;;;;;;6.09;100.00;103506.34;5073982;28;20048;-69
2024/01/12 00:02:48;;;;;;;3.85;1.38;;;;;;;6.06;100.00;103501.94;5064668;28;20057;-69
2024/01/12 00:05:15;;;;;;;7.72;2.10;;;;;;;6.14;100.00;103502.13;5062920;28;20409;-69
2024/01/12 00:07:42;;;;;;;4.30;1.50;;;;;;;6.13;100.00;103496.94;5061465;28;20083;-69
2024/01/12 00:10:09;;;;;;;4.28;1.40;;;;;;;6.16;100.00;103497.88;5064261;28;20056;-69
2024/01/12 00:12:36;;;;;;;4.45;1.30;;;;;;;6.11;100.00;103495.97;5061417;28;20049;-69
2024/01/12 00:15:03;;;;;;;4.75;1.60;;;;;;;6.14;100.00;103494.34;5058741;28;20044;-69
2024/01/12 00:17:30;;;;;;;3.28;1.33;;;;;;;6.06;100.00;103488.06;5067510;28;20075;-69
2024/01/12 00:19:56;;;;;;;2.92;1.23;;;;;;;6.07;100.00;103477.72;5067896;28;20456;-68
2024/01/12 00:22:23;;;;;;;3.63;1.55;;;;;;;6.18;100.00;103490.09;5062054;28;20048;-69
2024/01/12 00:24:50;;;;;;;4.15;1.40;;;;;;;6.09;100.00;103493.34;5057626;28;20482;-69
2024/01/12 00:27:16;;;;;;;5.38;1.38;;;;;;;6.16;100.00;103491.78;5056059;28;20041;-69
2024/01/12 00:29:43;;;;;;;3.30;1.27;;;;;;;6.07;100.00;103471.59;5066735;28;20285;-69
2024/01/12 00:32:11;;;;;;;5.07;1.20;;;;;;;6.17;100.00;103486.63;5060552;28;20049;-69
2024/01/12 00:34:38;;;;;;;3.88;1.50;;;;;;;6.27;100.00;103477.31;5055743;28;20118;-69
2024/01/12 00:37:05;;;;;;;3.22;1.30;;;;;;;6.11;100.00;103478.66;5070309;28;20133;-69
2024/01/12 00:39:32;;;;;;;7.70;1.77;;;;;;;6.01;100.00;103476.69;5065203;28;20128;-69
2024/01/12 00:41:59;;;;;;;6.15;1.90;;;;;;;6.04;100.00;103469.81;5074030;28;20060;-69
2024/01/12 00:44:26;;;;;;;4.75;1.60;;;;;;;6.15;100.00;103470.09;5070386;28;20096;-69
2024/01/12 00:46:53;;;;;;;4.45;1.20;;;;;;;6.15;100.00;103474.41;5065550;28;20056;-69
2024/01/12 00:49:20;;;;;;;4.35;1.40;;;;;;;6.13;100.00;103461.38;5064388;28;20145;-69
2024/01/12 00:51:48;;;;;;;3.22;1.40;;;;;;;6.07;100.00;103461.22;5076972;28;20457;-69
2024/01/12 00:54:15;;;;;;;6.00;1.58;;;;;;;6.27;100.00;103449.56;5059855;28;20045;-69
2024/01/12 00:56:42;;;;;;;7.45;1.40;;;;;;;6.07;100.00;103456.00;5076415;28;20063;-69
2024/01/12 00:59:09;;;;;;;3.08;1.50;;;;;;;6.07;100.00;103464.72;5081128;28;20474;-69
2024/01/12 01:01:36;;;;;;;3.58;1.52;;;;;;;5.99;100.00;103448.03;5069831;28;20159;-69
2024/01/12 01:04:04;;;;;;;4.13;1.85;;;;;;;6.13;100.00;103456.16;5071230;28;20052;-69
2024/01/12 01:06:30;;;;;;;4.85;1.45;;;;;;;5.90;100.00;103451.22;5069686;28;20106;-69
2024/01/12 01:08:57;;;;;;;6.65;1.67;;;;;;;6.06;100.00;103462.94;5069074;28;20131;-69
2024/01/12 01:11:24;;;;;;;5.45;1.77;;;;;;;6.03;100.00;103455.06;5067763;28;20070;-69
2024/01/12 01:13:51;;;;;;;6.38;1.60;;;;;;;6.01;100.00;103461.94;5068525;28;20502;-69
2024/01/12 01:16:19;;;;;;;8.50;2.03;;;;;;;6.04;100.00;103461.16;5068004;28;20080;-68
2024/01/12 01:18:46;;;;;;;5.95;1.73;;;;;;;5.95;100.00;103453.97;5060500;28;20474;-69
2024/01/12 01:21:13;;;;;;;4.22;1.45;;;;;;;5.86;100.00;103456.31;5067913;28;20147;-69
2024/01/12 01:23:39;;;;;;;6.00;1.77;;;;;;;5.89;100.00;103459.00;5064610;28;20051;-69
2024/01/12 01:26:06;;;;;;;6.00;2.20;;;;;;;5.93;100.00;103447.81;5068805;28;20056;-69
2024/01/12 01:28:33;;;;;;;6.85;1.67;;;;;;;5.77;100.00;103446.56;5068776;28;20052;-68
2024/01/12 01:31:00;;;;;;;19.25;5.05;;;;;;;5.82;100.00;103442.34;5067463;28;20075;-69
2024/01/12 01:33:26;;;;;;;4.57;1.83;;;;;;;5.85;100.00;103437.22;5077009;28;20049;-69
2024/01/12 01:35:53;;;;;;;6.05;1.73;;;;;;;5.86;100.00;103430.31;5069767;28;20075;-69
2024/01/12 01:38:21;;;;;;;4.43;1.70;;;;;;;5.87;100.00;103432.94;5069005;28;20048;-69
2024/01/12 01:40:48;;;;;;;6.05;1.98;;;;;;;5.89;100.00;103433.00;5074588;28;20427;-69
2024/01/12 01:43:14;;;;;;;4.95;1.80;;;;;;;5.82;100.00;103428.47;5053812;28;20041;-70
2024/01/12 01:45:41;;;;;;;4.10;1.52;;;;;;;5.89;100.00;103422.59;5073877;28;20052;-69
2024/01/12 01:48:08;;;;;;;3.53;1.60;;;;;;;5.75;100.00;103406.63;5068506;28;20045;-68
2024/01/12 01:50:36;;;;;;;3.70;1.60;;;;;;;5.73;100.00;103418.72;5069058;28;20146;-69
2024/01/12 01:53:04;;;;;;;6.85;1.90;;;;;;;5.78;100.00;103424.91;5064854;28;20122;-70
2024/01/12 01:55:32;;;;;;;4.47;1.75;;;;;;;5.77;100.00;103427.47;5064282;28;20518;-68
2024/01/12 01:58:00;;;;;;;3.40;1.50;;;;;;;5.69;100.00;103420.38;5065330;28;20485;-68
2024/01/12 02:00:28;;;;;;;5.22;1.88;;;;;;;5.69;100.00;103409.97;5075401;28;20060;-68
2024/01/12 02:02:55;;;;;;;4.40;1.60;;;;;;;5.76;100.00;103411.00;5069177;28;20044;-68
2024/01/12 02:05:22;;;;;;;3.58;1.25;;;;;;;5.76;100.00;103410.13;5067775;28;20558;-68
2024/01/12 02:07:49;;;;;;;6.47;2.08;;;;;;;5.75;100.00;103417.03;5060662;28;20061;-69
2024/01/12 02:10:16;;;;;;;3.67;1.42;;;;;;;5.81;100.00;103418.94;5071958;28;20049;-69
2024/01/12 02:12:43;;;;;;;3.90;1.40;;;;;;;5.83;100.00;103404.25;5078251;28;20052;-69
2024/01/12 02:15:10;;;;;;;3.47;1.60;;;;;;;5.86;100.00;103409.50;5081621;28;20060;-69
2024/01/12 02:17:37;;;;;;;3.85;1.55;;;;;;;5.85;100.00;103402.56;5062980;28;20042;-69
2024/01/12 02:20:04;;;;;;;3.58;1.40;;;;;;;5.81;100.00;103390.34;5074058;28;20114;-69
2024/01/12 02:22:31;;;;;;;5.45;1.42;;;;;;;5.88;100.00;103392.25;5071833;28;20087;-69
2024/01/12 02:24:58;;;;;;;3.70;1.67;;;;;;;5.70;100.00;103398.75;5071294;28;20052;-69
2024/01/12 02:27:25;;;;;;;3.78;1.40;;;;;;;5.79;100.00;103398.09;5057804;28;20049;-69
2024/01/12 02:29:52;;;;;;;4.60;1.70;;;;;;;5.81;100.00;103391.22;5071376;28;20044;-69
2024/01/12 02:32:19;;;;;;;3.08;1.42;;;;;;;5.68;100.00;103370.94;5078733;28;20605;-69
2024/01/12 02:34:46;;;;;;;3.17;1.40;;;;;;;5.81;100.00;103390.34;5078658;28;20044;-69
2024/01/12 02:37:13;;;;;;;5.68;1.58;;;;;;;5.70;100.00;103382.25;5059818;28;20063;-69
2024/01/12 02:39:39;;;;;;;3.78;1.50;;;;;;;5.84;100.00;103385.19;5070937;28;20117;-70
2024/01/12 02:42:06;;;;;;;5.72;1.55;;;;;;;5.72;100.00;103385.78;5071601;28;20066;-69
2024/01/12 02:44:33;;;;;;;5.65;1.55;;;;;;;5.72;100.00;103380.59;5065631;28;20399;-68
2024/01/12 02:46:59;;;;;;;3.50;1.40;;;;;;;5.78;100.00;103375.53;5054197;28;20114;-68
2024/01/12 02:49:26;;;;;;;3.58;1.48;;;;;;;5.66;100.00;103376.09;5068214;28;20041;-68
2024/01/12 02:51:53;;;;;;;4.22;1.30;;;;;;;5.74;100.00;103384.09;5077369;28;20045;-68
2024/01/12 02:54:20;;;;;;;4.57;1.60;;;;;;;5.55;100.00;103380.16;5072002;28;20055;-68
2024/01/12 02:56:47;;;;;;;2.80;1.20;;;;;;;5.63;100.00;103372.53;5072416;28;20463;-68
2024/01/12 02:59:14;;;;;;;3.70;1.70;;;;;;;5.36;100.00;103376.19;5075620;28;20489;-69
2024/01/12 03:01:41;;;;;;;3.13;1.55;;;;;;;5.92;100.00;103372.41;5073138;28;20541;-68
2024/01/12 03:04:07;;;;;;;3.75;1.50;;;;;;;6.10;100.00;103364.16;5072509;28;20044;-68
2024/01/12 03:06:34;;;;;;;6.10;1.98;;;;;;;5.88;100.00;103359.31;5074117;28;20150;-69
2024/01/12 03:09:01;;;;;;;2.95;1.25;;;;;;;6.11;100.00;103356.41;5071713;28;20504;-68
2024/01/12 03:11:28;;;;;;;4.13;1.63;;;;;;;6.07;100.00;103358.06;5071441;28;20056;-68
2024/01/12 03:13:55;;;;;;;5.30;1.60;;;;;;;6.21;100.00;103354.88;5071437;28;20394;-68
2024/01/12 03:16:22;;;;;;;3.38;1.50;;;;;;;6.18;100.00;103340.09;5063763;28;20051;-68
2024/01/12 03:18:49;;;;;;;3.47;1.40;;;;;;;6.48;100.00;103354.63;5060748;28;20075;-68
2024/01/12 03:21:17;;;;;;;2.83;1.20;;;;;;;6.44;100.00;103345.84;5070917;28;20492;-68
2024/01/12 03:23:44;;;;;;;3.42;1.10;;;;;;;6.44;100.00;103348.44;5071824;28;20487;-68
2024/01/12 03:26:11;;;;;;;2.60;1.30;;;;;;;6.26;100.00;103341.13;5071201;28;20132;-68
2024/01/12 03:28:37;;;;;;;8.18;1.70;;;;;;;6.31;100.00;103345.56;5077326;28;20044;-68
2024/01/12 03:31:05;;;;;;;4.22;1.55;;;;;;;6.18;100.00;103332.28;5079155;28;20482;-68
2024/01/12 03:33:32;;;;;;;7.40;2.75;;;;;;;6.12;100.00;103344.28;5077958;28;20047;-68
2024/01/12 03:35:59;;;;;;;4.22;1.70;;;;;;;6.10;100.00;103332.97;5071025;28;20044;-68
2024/01/12 03:38:26;;;;;;;3.97;1.50;;;;;;;6.30;100.00;103333.41;5070497;28;20458;-68
2024/01/12 03:40:52;;;;;;;4.05;1.40;;;;;;;5.90;100.00;103328.16;5065700;28;20049;-68
2024/01/12 03:43:19;;;;;;;3.53;1.42;;;;;;;5.76;100.00;103325.22;5068666;28;20036;-68
2024/01/12 03:45:46;;;;;;;2.70;1.40;;;;;;;5.84;100.00;103325.38;5069069;28;20474;-68
2024/01/12 03:48:12;;;;;;;4.20;1.50;;;;;;;5.74;100.00;103333.81;5070050;28;20055;-68
2024/01/12 03:50:39;;;;;;;2.70;1.30;;;;;;;5.75;100.00;103332.97;5070057;28;20139;-68
2024/01/12 03:53:06;;;;;;;2.78;1.40;;;;;;;5.77;100.00;103331.28;5070265;28;20052;-68
2024/01/12 03:55:33;;;;;;;5.07;1.70;;;;;;;5.55;100.00;103322.09;5070740;28;20051;-68
2024/01/12 03:57:59;;;;;;;7.50;1.63;;;;;;;5.59;100.00;103326.53;5056906;28;20127;-68
2024/01/12 04:00:26;;;;;;;4.22;1.38;;;;;;;5.58;100.00;103319.56;5065347;28;20056;-68
2024/01/12 04:02:52;;;;;;;2.10;1.30;;;;;;;5.68;100.00;103322.44;5070196;28;20051;-68
2024/01/12 04:05:19;;;;;;;2.50;1.23;;;;;;;5.70;100.00;103317.25;5079953;28;20040;-68
2024/01/12 04:07:46;;;;;;;3.78;1.42;;;;;;;5.66;100.00;103310.22;5069576;28;20092;-68
2024/01/12 04:10:13;;;;;;;2.50;1.20;;;;;;;5.67;100.00;103319.81;5076465;28;20139;-68
2024/01/12 04:12:39;;;;;;;4.15;1.80;;;;;;;5.60;100.00;103318.75;5066049;28;21565;-68
2024/01/12 04:15:09;;;;;;;3.38;1.23;;;;;;;5.62;100.00;103311.88;5082851;28;20123;-68
2024/01/12 04:17:36;;;;;;;2.92;1.20;;;;;;;5.60;100.00;103318.75;5069793;28;20052;-68
2024/01/12 04:20:03;;;;;;;3.15;1.05;;;;;;;5.65;100.00;103318.88;5081441;28;20109;-68
2024/01/12 04:22:31;;;;;;;2.10;1.27;;;;;;;5.59;100.00;103310.94;5070777;28;20482;-68
2024/01/12 04:24:58;;;;;;;1.83;1.25;;;;;;;5.61;100.00;103309.25;5072451;28;20135;-68
2024/01/12 04:27:26;;;;;;;2.60;1.10;;;;;;;5.53;100.00;103308.19;5058713;28;20482;-68
2024/01/12 04:29:53;;;;;;;3.65;1.50;;;;;;;5.50;100.00;103315.03;5076714;28;20060;-68
2024/01/12 04:32:20;;;;;;;2.78;1.30;;;;;;;5.41;100.00;103301.84;5067373;28;20047;-68
2024/01/12 04:34:47;;;;;;;3.20;1.48;;;;;;;5.38;100.00;103306.06;5078169;28;20048;-69
2024/01/12 04:37:14;;;;;;;3.28;1.58;;;;;;;5.39;100.00;103305.25;5069911;28;20056;-69
2024/01/12 04:39:41;;;;;;;3.58;1.48;;;;;;;5.33;100.00;103299.06;5073064;28;20139;-69
2024/01/12 04:42:08;;;;;;;4.95;2.25;;;;;;;5.65;100.00;103301.56;5067397;28;20478;-69
2024/01/12 04:44:34;;;;;;;2.42;1.30;;;;;;;5.61;100.00;103294.53;5066722;28;20184;-69
2024/01/12 04:47:01;;;;;;;4.97;1.50;;;;;;;5.62;100.00;103298.00;5074278;28;20462;-68
2024/01/12 04:49:28;;;;;;;3.38;1.60;;;;;;;5.46;100.00;103294.16;5063419;28;20080;-69
2024/01/12 04:51:55;;;;;;;7.40;2.08;;;;;;;5.56;100.00;103296.16;5056910;28;20095;-69
2024/01/12 04:54:22;;;;;;;5.13;1.70;;;;;;;5.60;100.00;103287.56;5074516;28;20053;-69
2024/01/12 04:56:48;;;;;;;3.55;1.42;;;;;;;5.60;100.00;103294.50;5069435;28;20044;-69
2024/01/12 04:59:15;;;;;;;4.28;1.65;;;;;;;5.62;100.00;103298.88;5071954;28;20052;-69
2024/01/12 05:01:42;;;;;;;3.08;1.40;;;;;;;5.57;100.00;103291.81;5068673;28;20390;-69
2024/01/12 05:04:08;;;;;;;4.97;1.67;;;;;;;5.51;100.00;103292.56;5076334;28;20093;-68
2024/01/12 05:06:35;;;;;;;3.80;1.67;;;;;;;5.28;100.00;103297.19;5080701;28;20143;-68
2024/01/12 05:09:02;;;;;;;3.42;1.50;;;;;;;5.32;100.00;103292.09;5068132;28;20565;-68
2024/01/12 05:11:29;;;;;;;2.72;1.10;;;;;;;5.58;100.00;103285.75;5056018;28;20143;-69
2024/01/12 05:13:55;;;;;;;3.88;1.42;;;;;;;5.89;100.00;103279.56;5068450;28;20056;-69
2024/01/12 05:16:22;;;;;;;3.65;1.45;;;;;;;5.95;100.00;103277.13;5080902;28;20111;-68
2024/01/12 05:18:49;;;;;;;3.92;1.70;;;;;;;5.62;100.00;103274.63;5063776;28;20049;-68
2024/01/12 05:21:16;;;;;;;3.70;1.35;;;;;;;5.29;100.00;103278.13;5095561;28;20051;-69
2024/01/12 05:23:46;;;;;;;3.65;1.23;;;;;;;5.32;100.00;103265.25;5070056;28;20080;-68
2024/01/12 05:26:13;;;;;;;5.65;1.58;;;;;;;5.39;100.00;103264.53;5068368;28;20056;-68
2024/01/12 05:28:39;;;;;;;2.92;1.35;;;;;;;5.40;100.00;103268.00;5071629;28;20062;-68
2024/01/12 05:31:09;;;;;;;5.05;1.40;;;;;;;5.35;100.00;103257.53;5072419;28;20126;-68
2024/01/12 05:33:35;;;;;;;2.65;1.20;;;;;;;5.39;100.00;103251.56;5065690;28;20509;-68
2024/01/12 05:36:03;;;;;;;2.42;1.25;;;;;;;5.43;100.00;103253.38;5061905;28;20045;-68
2024/01/12 05:38:29;;;;;;;1.50;1.00;;;;;;;5.49;100.00;103248.34;5063348;28;20449;-68
2024/01/12 05:40:56;;;;;;;2.33;1.27;;;;;;;5.44;100.00;103252.53;5057212;28;20056;-68
2024/01/12 05:43:23;;;;;;;2.55;1.30;;;;;;;5.32;100.00;103242.72;5083322;28;20053;-68
2024/01/12 05:45:49;;;;;;;2.72;1.27;;;;;;;5.32;100.00;103236.66;5050226;28;20127;-68
2024/01/12 05:48:16;;;;;;;3.45;1.40;;;;;;;5.66;100.00;103232.25;5063052;28;20513;-68
2024/01/12 05:50:43;;;;;;;2.13;1.08;;;;;;;5.48;100.00;103214.50;5061171;28;20115;-68
2024/01/12 05:53:10;;;;;;;2.90;1.40;;;;;;;5.18;100.00;103222.47;5062874;28;20047;-68
2024/01/12 05:55:37;;;;;;;4.22;1.45;;;;;;;5.14;100.00;103227.56;5063242;28;20045;-68
2024/01/12 05:58:04;;;;;;;2.00;1.10;;;;;;;5.20;100.00;103226.84;5068485;28;20160;-68
2024/01/12 06:00:30;;;;;;;2.97;1.20;;;;;;;5.17;100.00;103223.28;5069461;28;20048;-68
2024/01/12 06:02:57;;;;;;;3.70;1.40;;;;;;;5.21;100.00;103222.53;5076746;28;20398;-69
2024/01/12 06:05:24;;;;;;;4.35;1.73;;;;;;;5.05;100.00;103216.09;5069260;28;20123;-68
2024/01/12 06:07:51;;;;;;;3.25;1.30;;;;;;;5.04;100.00;103224.69;5068638;28;20070;-68
2024/01/12 06:10:18;;;;;;;4.07;1.33;;;;;;;5.08;100.00;103214.44;5073722;28;20051;-68
2024/01/12 06:12:44;;;;;;;2.33;1.30;;;;;;;5.15;100.00;103218.06;5076134;28;20051;-68
2024/01/12 06:15:11;;;;;;;4.82;1.48;;;;;;;5.13;100.00;103222.34;5068170;28;20121;-68
2024/01/12 06:17:38;;;;;;;3.03;1.40;;;;;;;5.11;100.00;103219.69;5085348;28;20139;-68
2024/01/12 06:20:07;;;;;;;3.20;1.40;;;;;;;5.03;100.00;103202.16;5070898;28;20055;-68
2024/01/12 06:22:33;;;;;;;2.53;1.25;;;;;;;4.96;100.00;103201.16;5076876;28;20055;-69
2024/01/12 06:25:00;;;;;;;2.17;1.33;;;;;;;4.97;100.00;103192.50;5078978;28;20425;-68
2024/01/12 06:27:27;;;;;;;1.95;1.30;;;;;;;4.84;100.00;103178.34;5061898;28;20052;-68
2024/01/12 06:29:53;;;;;;;2.85;1.20;;;;;;;4.90;100.00;103188.88;5075200;28;20056;-68
2024/01/12 06:32:20;;;;;;;2.47;1.17;;;;;;;4.88;100.00;103182.75;5066363;28;20080;-69
2024/01/12 06:34:47;;;;;;;3.25;1.17;;;;;;;4.94;100.00;103169.09;5051494;28;20045;-68
2024/01/12 06:37:14;;;;;;;2.20;1.30;;;;;;;5.09;100.00;103182.41;5068949;28;20477;-68
2024/01/12 06:39:40;;;;;;;4.13;1.40;;;;;;;4.91;100.00;103184.56;5071256;28;20053;-68
2024/01/12 06:42:07;;;;;;;2.30;1.17;;;;;;;4.91;100.00;103182.84;5076601;28;20653;-68
2024/01/12 06:44:38;;;;;;;2.38;1.25;;;;;;;4.92;100.00;103181.13;5072085;28;20058;-68
2024/01/12 06:47:06;;;;;;;2.40;1.20;;;;;;;4.90;100.00;103178.50;5073020;28;20498;-69
2024/01/12 06:49:34;;;;;;;2.08;1.20;;;;;;;4.88;100.00;103179.31;5057201;28;20055;-68
2024/01/12 06:52:00;;;;;;;3.63;1.30;;;;;;;4.84;100.00;103182.66;5067475;28;20494;-69
2024/01/12 06:54:27;;;;;;;2.80;1.33;;;;;;;4.85;100.00;103181.81;5057727;28;20479;-69
2024/01/12 06:56:56;;;;;;;1.63;1.15;;;;;;;4.86;100.00;103181.84;5060032;28;20161;-68
2024/01/12 06:59:23;;;;;;;2.70;1.30;;;;;;;4.91;100.00;103181.97;5077471;28;20448;-69
2024/01/12 07:01:50;;;;;;;1.85;1.10;;;;;;;5.14;100.00;103179.94;5070795;28;20044;-69
2024/01/12 07:04:17;;;;;;;2.80;1.20;;;;;;;5.38;100.00;103169.25;5064200;28;20080;-69
2024/01/12 07:06:43;;;;;;;3.05;1.30;;;;;;;5.41;100.00;103176.25;5067263;28;20141;-69
2024/01/12 07:09:12;;;;;;;3.03;1.30;;;;;;;5.34;100.00;103164.81;5061061;28;20145;-69
2024/01/12 07:11:42;;;;;;;2.25;1.20;;;;;;;5.54;100.00;103170.47;5070947;28;20052;-69
2024/01/12 07:14:10;;;;;;;2.75;1.30;;;;;;;5.49;100.00;103175.56;5056093;28;20048;-69
2024/01/12 07:16:37;;;;;;;2.10;1.10;;;;;;;5.55;100.00;103166.16;5059644;28;20053;-69
2024/01/12 07:19:04;;;;;;;2.75;1.30;;;;;;;5.38;100.00;103148.44;5067421;28;20059;-69
2024/01/12 07:21:31;;;;;;;1.67;1.10;;;;;;;5.51;100.00;103153.09;5060715;28;20501;-69
2024/01/12 07:23:58;;;;;;;2.72;1.40;;;;;;;5.61;100.00;103155.88;5050061;28;20056;-69
2024/01/12 07:26:25;;;;;;;2.35;1.20;;;;;;;5.54;100.00;103148.81;5057845;28;20363;-69
2024/01/12 07:28:52;;;;;;;2.45;1.20;;;;;;;5.55;100.00;103148.84;5061948;28;20514;-69
2024/01/12 07:31:19;;;;;;;2.67;1.30;;;;;;;5.37;100.00;103153.66;5050321;28;20059;-69
2024/01/12 07:33:46;;;;;;;3.92;1.33;;;;;;;5.49;100.00;103148.72;5054229;28;20045;-69
2024/01/12 07:36:13;;;;;;;1.85;1.10;;;;;;;5.61;100.00;103141.19;5052216;28;20045;-70
2024/01/12 07:38:39;;;;;;;2.63;1.20;;;;;;;5.50;100.00;103138.34;5064280;28;20064;-69
2024/01/12 07:41:06;;;;;;;2.67;1.20;;;;;;;5.54;100.00;103135.81;5069952;28;20063;-69
2024/01/12 07:43:33;;;;;;;2.13;1.20;;;;;;;5.45;100.00;103129.59;5055733;28;20059;-69
2024/01/12 07:46:00;;;;;;;2.05;1.20;;;;;;;5.55;100.00;103124.59;5070050;28;20067;-69
2024/01/12 07:48:27;;;;;;;3.70;1.58;;;;;;;5.50;100.00;103124.47;5064489;28;20486;-69
2024/01/12 07:50:54;;;;;;;4.07;1.60;;;;;;;5.51;100.00;103119.31;5053013;28;20090;-69
2024/01/12 07:53:21;;;;;;;4.88;1.42;;;;;;;5.38;100.00;103098.22;5057740;28;20048;-69
2024/01/12 07:55:49;;;;;;;2.55;1.23;;;;;;;5.16;100.00;103110.75;5063539;28;20487;-69
2024/01/12 07:58:18;;;;;;;3.17;1.30;;;;;;;5.25;100.00;103110.94;5059803;28;20083;-69
2024/01/12 08:00:45;;;;;;;3.47;1.42;;;;;;;5.24;100.00;103096.22;5069390;28;20088;-69
2024/01/12 08:03:12;;;;;;;4.78;1.70;;;;;;;5.24;100.00;103085.81;5064122;28;20268;-69
2024/01/12 08:05:39;;;;;;;3.92;1.70;;;;;;;5.12;100.00;103089.00;5060890;28;20449;-69
2024/01/12 08:08:06;;;;;;;3.15;1.40;;;;;;;5.32;100.00;103084.25;5069616;28;20048;-69
2024/01/12 08:10:33;;;;;;;3.90;1.70;;;;;;;5.33;100.00;103082.56;5069861;28;20098;-69
2024/01/12 08:13:00;;;;;;;3.83;1.55;;;;;;;5.09;100.00;103082.88;5058200;28;20395;-69
2024/01/12 08:15:27;;;;;;;4.45;1.80;;;;;;;5.08;100.00;103082.00;5064038;28;20049;-69
2024/01/12 08:17:54;;;;;;;3.85;1.65;;;;;;;5.00;100.00;103074.88;5053137;28;20060;-69
2024/01/12 08:20:20;;;;;;;5.43;2.00;;;;;;;5.02;100.00;103075.78;5071571;28;20052;-69
2024/01/12 08:22:47;;;;;;;4.60;2.25;;;;;;;5.03;100.00;103077.53;5071856;28;20052;-69
2024/01/12 08:25:14;;;;;;;3.22;1.50;;;;;;;5.00;100.00;103072.28;5066608;28;20048;-69
2024/01/12 08:27:41;;;;;;;4.40;1.70;;;;;;;4.81;100.00;103071.84;5051297;28;20140;-69
2024/01/12 08:30:08;;;;;;;4.07;1.40;;;;;;;4.34;100.00;103062.06;5060675;28;20052;-69
2024/01/12 08:32:37;;;;;;;3.72;1.40;;;;;;;4.29;100.00;103060.19;5070282;28;20048;-69
2024/01/12 08:35:08;;;;;;;4.55;1.70;;;;;;;4.35;100.00;103060.34;5055806;28;20407;-69
2024/01/12 08:37:34;;;;;;;2.78;1.33;;;;;;;4.23;100.00;103065.19;5053072;28;20136;-69
2024/01/12 08:40:01;;;;;;;2.70;1.20;;;;;;;4.10;100.00;103067.47;5063030;28;20044;-69
2024/01/12 08:42:28;;;;;;;4.38;1.67;;;;;;;4.08;100.00;103056.19;5064576;28;20499;-69
2024/01/12 08:44:55;;;;;;;3.58;1.88;;;;;;;4.02;100.00;103062.91;5062001;28;20051;-69
2024/01/12 08:47:21;;;;;;;5.65;2.17;;;;;;;3.77;100.00;103068.31;5056444;28;20044;-69
2024/01/12 08:49:48;;;;;;;4.15;1.80;;;;;;;3.85;100.00;103059.88;5062972;28;20102;-69
2024/01/12 08:52:15;;;;;;;4.60;1.63;;;;;;;3.89;100.00;103069.47;5064298;28;20055;-69
2024/01/12 08:54:43;;;;;;;5.65;1.90;;;;;;;3.88;100.00;103063.44;5070857;28;20459;-69
2024/01/12 08:57:09;;;;;;;4.15;1.70;;;;;;;3.89;100.00;103072.06;5055982;28;20055;-69
2024/01/12 08:59:36;;;;;;;4.55;1.90;;;;;;;3.91;100.00;103075.59;5072904;28;20045;-69
2024/01/12 09:02:03;;;;;;;5.03;2.00;;;;;;;3.74;100.00;103075.13;5062163;28;20053;-69
2024/01/12 09:04:31;;;;;;;5.93;1.98;;;;;;;3.83;100.00;103053.78;5061821;28;20051;-69
2024/01/12 09:06:58;;;;;;;5.72;2.13;;;;;;;3.85;100.00;103059.88;5062042;28;20045;-69
2024/01/12 09:09:25;;;;;;;3.72;1.60;;;;;;;4.23;100.00;103063.47;5061640;28;20049;-69
2024/01/12 09:11:52;;;;;;;4.25;1.60;;;;;;;4.67;100.00;103047.28;5069061;28;20052;-69
2024/01/12 09:14:19;;;;;;;4.78;1.90;;;;;;;4.18;100.00;103049.53;5064305;28;20052;-69
2024/01/12 09:16:46;;;;;;;3.80;1.60;;;;;;;3.88;100.00;103049.56;5058994;28;20045;-69
2024/01/12 09:19:12;;;;;;;4.20;1.58;;;;;;;3.85;100.00;103039.16;5065674;28;20048;-69
2024/01/12 09:21:39;;;;;;;3.53;1.70;;;;;;;3.79;100.00;103047.63;5066453;28;20117;-69
2024/01/12 09:24:06;;;;;;;4.80;1.60;;;;;;;3.79;100.00;103035.56;5060977;28;20088;-69
2024/01/12 09:26:32;;;;;;;2.72;1.40;;;;;;;3.87;100.00;103035.75;5068986;28;20105;-69
2024/01/12 09:28:59;;;;;;;5.68;1.80;;;;;;;3.78;100.00;103025.13;5096358;27;20144;-69
2024/01/12 09:31:26;;;;;;;6.18;2.00;;;;;;;3.89;100.00;103028.03;5060366;28;20134;-69
2024/01/12 09:33:53;;;;;;;6.20;2.00;;;;;;;3.78;100.00;103017.38;5056339;28;20044;-69
2024/01/12 09:36:20;;;;;;;5.90;2.13;;;;;;;3.81;100.00;103012.28;5061659;28;20048;-69
2024/01/12 09:38:47;;;;;;;4.65;1.75;;;;;;;3.66;100.00;103010.13;5060116;28;20135;-69
2024/01/12 09:41:13;;;;;;;5.35;2.00;;;;;;;3.52;100.00;103020.09;5050122;28;20149;-69
2024/01/12 09:43:42;;;;;;;5.32;1.90;;;;;;;3.39;100.00;103008.53;5061748;28;20060;-69
2024/01/12 09:46:09;;;;;;;5.18;1.90;;;;;;;3.41;100.00;103004.25;5063354;28;20037;-69
2024/01/12 09:48:37;;;;;;;6.30;2.50;;;;;;;3.50;100.00;103010.53;5056193;28;20051;-69
2024/01/12 09:51:05;;;;;;;5.43;1.80;;;;;;;3.54;100.00;102999.41;5048080;28;20139;-69
2024/01/12 09:53:32;;;;;;;3.22;1.50;;;;;;;3.79;100.00;103008.78;5059431;28;20729;-69
2024/01/12 09:55:59;;;;;;;4.32;1.90;;;;;;;3.68;100.00;103005.00;5056517;28;20118;-69
2024/01/12 09:58:38;;;;;;;5.35;1.80;;;;;;;3.54;100.00;103010.69;5072359;28;20052;-69
2024/01/12 10:01:07;;;;;;;5.40;1.85;;;;;;;3.47;100.00;102995.81;5064767;28;20052;-68
2024/01/12 10:03:36;;;;;;;5.55;2.22;;;;;;;3.57;100.00;102995.19;5069854;28;20504;-68
2024/01/12 10:06:03;;;;;;;6.63;2.28;;;;;;;3.49;100.00;102999.31;5069550;28;20060;-68
2024/01/12 10:08:37;;;;;;;4.38;1.70;;;;;;;3.58;100.00;103014.22;5069035;28;20051;-68
2024/01/12 10:11:04;;;;;;;5.57;2.22;;;;;;;3.64;100.00;103000.56;5069228;28;20055;-68
2024/01/12 10:13:31;;;;;;;5.35;1.85;;;;;;;3.73;100.00;103009.44;5068906;28;20083;-68
2024/01/12 10:15:59;;;;;;;5.25;1.77;;;;;;;3.67;100.00;103008.44;5069973;28;20136;-68
2024/01/12 10:18:25;;;;;;;6.63;2.15;;;;;;;3.51;100.00;103001.94;5068960;28;20387;-69
2024/01/12 10:20:53;;;;;;;5.30;1.98;;;;;;;3.48;100.00;102994.94;5069771;28;20052;-69
2024/01/12 10:23:20;;;;;;;5.60;1.98;;;;;;;3.60;100.00;102997.00;5069446;28;20132;-68
2024/01/12 10:26:00;;;;;;;5.32;2.10;;;;;;;3.69;100.00;102999.84;5068602;28;20048;-68
2024/01/12 10:28:29;;;;;;;6.30;2.00;;;;;;;3.71;100.00;102997.31;5069880;28;20764;-68
2024/01/12 10:30:56;;;;;;;5.13;1.85;;;;;;;3.66;100.00;102993.72;5073112;28;20059;-68
2024/01/12 10:33:23;;;;;;;5.35;2.22;;;;;;;3.73;100.00;102987.84;5076501;28;20048;-68
2024/01/12 10:36:15;;;;;;;5.05;2.13;;;;;;;3.74;100.00;102979.25;5072480;28;20041;-68
2024/01/12 10:38:45;;;;;;;9.38;3.67;;;;;;;3.90;100.00;102971.03;5060700;28;20079;-68
2024/01/12 10:41:11;;;;;;;8.85;3.55;;;;;;;3.79;100.00;102970.75;5071673;28;20060;-69
2024/01/12 10:43:38;;;;;;;7.85;3.10;;;;;;;3.64;100.00;102966.88;5071366;28;20051;-68
2024/01/12 10:46:16;;;;;;;9.13;3.80;;;;;;;3.61;100.00;102967.66;5071219;28;20590;-68
2024/01/12 10:48:55;;;;;;;8.15;3.50;;;;;;;3.46;100.00;102967.28;5071520;28;20401;-68
2024/01/12 10:51:29;;;;;;;9.75;3.40;;;;;;;3.29;100.00;102956.44;5072992;28;20051;-68
2024/01/12 10:54:04;;;;;;;8.65;3.47;;;;;;;3.27;100.00;102963.28;5071102;28;20386;-68
2024/01/12 10:56:32;;;;;;;8.07;3.35;;;;;;;3.26;100.00;102957.22;5057153;28;20041;-68
2024/01/12 10:58:59;;;;;;;7.88;3.00;;;;;;;3.41;100.00;102954.19;5063157;28;20049;-68
2024/01/12 11:01:26;;;;;;;8.05;3.35;;;;;;;3.34;100.00;102952.25;5058715;28;20052;-68
2024/01/12 11:03:53;;;;;;;7.57;2.67;;;;;;;3.49;100.00;102944.03;5071690;28;20052;-68
2024/01/12 11:06:22;;;;;;;9.07;2.75;;;;;;;3.56;100.00;102941.66;5072592;28;20047;-69
2024/01/12 11:08:50;;;;;;;7.93;2.78;;;;;;;3.51;100.00;102944.97;5072509;28;20083;-68
2024/01/12 11:11:22;;;;;;;8.90;2.90;;;;;;;3.59;100.00;102930.47;5071280;28;20052;-68
2024/01/12 11:13:49;;;;;;;7.22;2.58;;;;;;;3.76;100.00;102934.41;5072714;28;20079;-68
2024/01/12 11:16:17;;;;;;;10.35;4.35;;;;;;;3.65;100.00;102925.47;5072528;28;20500;-68
2024/01/12 11:18:44;;;;;;;8.23;2.92;;;;;;;3.66;100.00;102928.94;5072529;28;20063;-68
2024/01/12 11:21:11;;;;;;;8.00;3.30;;;;;;;3.76;100.00;102920.56;5065570;28;20044;-69
2024/01/12 11:23:40;;;;;;;5.53;2.15;;;;;;;3.88;100.00;102914.81;5070890;28;20064;-70